Time;durP1;ratioP1;P1;durP2;ratioP2;P2;SDS_P1;SDS_P2;PMS_P1;PMS_P2;Temp;Humidity;BMP_temperature;BMP_pressure;BME280_temperature;BME280_humidity;BME280_pressure;Samples;Min_cycle;Max_cycle;Signal;HPM_P1;HPM_P2
2023/12/04 00:00:27;;;;;;;27.15;18.20;;;1.30;99.90;;;;;;5071375;28;20124;-71
2023/12/04 00:02:52;;;;;;;29.42;18.55;;;1.30;99.90;;;;;;5071700;28;20397;-71
2023/12/04 00:05:18;;;;;;;27.33;17.70;;;1.30;99.90;;;;;;5071383;28;20094;-71
2023/12/04 00:07:44;;;;;;;28.88;17.98;;;1.30;99.90;;;;;;5071655;28;20099;-71
2023/12/04 00:10:09;;;;;;;31.83;19.25;;;1.30;99.90;;;;;;5071283;28;20047;-71
2023/12/04 00:12:35;;;;;;;29.75;18.75;;;1.30;99.90;;;;;;5072795;28;20044;-71
2023/12/04 00:15:00;;;;;;;31.38;19.42;;;1.30;99.90;;;;;;5071567;28;20089;-71
2023/12/04 00:17:26;;;;;;;29.95;19.08;;;1.30;99.90;;;;;;5071517;28;20040;-71
2023/12/04 00:19:51;;;;;;;30.92;18.67;;;1.30;99.90;;;;;;5071151;28;20413;-71
2023/12/04 00:22:17;;;;;;;30.00;18.52;;;1.30;99.90;;;;;;5071037;28;20048;-72
2023/12/04 00:24:43;;;;;;;29.17;18.63;;;1.30;99.90;;;;;;5054462;28;20044;-71
2023/12/04 00:27:08;;;;;;;29.30;19.38;;;1.30;99.90;;;;;;5072648;28;20036;-71
2023/12/04 00:29:34;;;;;;;28.25;18.48;;;1.30;99.90;;;;;;5072630;28;20063;-71
2023/12/04 00:31:59;;;;;;;29.63;19.45;;;1.30;99.90;;;;;;5071140;28;20068;-71
2023/12/04 00:34:25;;;;;;;26.70;18.45;;;1.30;99.90;;;;;;5074704;28;20029;-71
2023/12/04 00:36:50;;;;;;;29.00;19.63;;;1.30;99.90;;;;;;5076221;28;20047;-71
2023/12/04 00:39:16;;;;;;;30.40;20.45;;;1.30;99.90;;;;;;5076088;28;20036;-71
2023/12/04 00:41:42;;;;;;;27.27;18.90;;;1.30;99.90;;;;;;5075783;28;20396;-71
2023/12/04 00:44:08;;;;;;;28.80;19.13;;;1.30;99.90;;;;;;5075751;28;20040;-71
2023/12/04 00:46:34;;;;;;;28.27;19.20;;;1.30;99.90;;;;;;5074819;28;20128;-71
2023/12/04 00:48:59;;;;;;;32.92;19.45;;;1.30;99.90;;;;;;5074382;28;20123;-71
2023/12/04 00:51:26;;;;;;;31.33;20.48;;;1.30;99.90;;;;;;5074676;28;20110;-71
2023/12/04 00:53:51;;;;;;;31.17;20.00;;;1.30;99.90;;;;;;5075821;28;20044;-71
2023/12/04 00:56:18;;;;;;;27.73;19.05;;;1.30;99.90;;;;;;5074316;28;20040;-71
2023/12/04 00:58:44;;;;;;;27.35;19.25;;;1.30;99.90;;;;;;5075826;28;20041;-71
2023/12/04 01:01:09;;;;;;;27.75;18.75;;;1.30;99.90;;;;;;5074143;28;20039;-71
2023/12/04 01:03:35;;;;;;;28.90;19.40;;;1.30;99.90;;;;;;5075750;28;20044;-71
2023/12/04 01:06:01;;;;;;;28.27;19.73;;;1.30;99.90;;;;;;5074407;28;20043;-71
2023/12/04 01:08:26;;;;;;;28.55;19.25;;;1.30;99.90;;;;;;5074150;28;20545;-71
2023/12/04 01:10:52;;;;;;;30.27;19.60;;;1.30;99.90;;;;;;5074054;28;20048;-71
2023/12/04 01:13:17;;;;;;;28.15;20.08;;;1.30;99.90;;;;;;5074115;28;20045;-71
2023/12/04 01:15:44;;;;;;;33.30;21.13;;;1.30;99.90;;;;;;5073958;28;20493;-71
2023/12/04 01:18:10;;;;;;;30.10;19.65;;;1.30;99.90;;;;;;5074200;28;20119;-71
2023/12/04 01:20:36;;;;;;;26.65;19.40;;;1.30;99.90;;;;;;5073844;28;20477;-71
2023/12/04 01:23:01;;;;;;;27.20;19.70;;;1.30;99.90;;;;;;5057132;28;20032;-71
2023/12/04 01:25:28;;;;;;;28.63;19.83;;;1.40;99.90;;;;;;5074141;28;20131;-71
2023/12/04 01:27:54;;;;;;;27.95;19.08;;;1.40;99.90;;;;;;5073768;28;20481;-71
2023/12/04 01:30:19;;;;;;;28.33;19.05;;;1.30;99.90;;;;;;5073687;28;20044;-71
2023/12/04 01:32:45;;;;;;;28.17;19.42;;;1.40;99.90;;;;;;5073579;28;20045;-71
2023/12/04 01:35:10;;;;;;;27.25;18.65;;;1.30;99.90;;;;;;5074794;28;20076;-71
2023/12/04 01:37:38;;;;;;;26.45;18.40;;;1.30;99.90;;;;;;5075081;28;20087;-71
2023/12/04 01:40:06;;;;;;;25.45;18.25;;;1.40;99.90;;;;;;5074953;28;20044;-71
2023/12/04 01:42:32;;;;;;;26.77;17.92;;;1.30;99.90;;;;;;5074012;28;20040;-71
2023/12/04 01:44:57;;;;;;;28.77;18.80;;;1.30;99.90;;;;;;5073350;28;20048;-71
2023/12/04 01:47:24;;;;;;;29.95;20.75;;;1.30;99.90;;;;;;5074863;28;20044;-71
2023/12/04 01:49:49;;;;;;;27.08;17.60;;;1.30;99.90;;;;;;5073519;28;20037;-71
2023/12/04 01:52:16;;;;;;;26.92;18.15;;;1.30;99.90;;;;;;5056856;28;20515;-71
2023/12/04 01:54:42;;;;;;;28.30;18.30;;;1.30;99.90;;;;;;5073222;28;20508;-71
2023/12/04 01:57:08;;;;;;;24.58;17.17;;;1.30;99.90;;;;;;5074725;28;20139;-71
2023/12/04 01:59:34;;;;;;;25.08;17.42;;;1.30;99.90;;;;;;5073022;28;20076;-71
2023/12/04 02:02:02;;;;;;;26.52;17.83;;;1.30;99.90;;;;;;5073330;28;20129;-71
2023/12/04 02:04:27;;;;;;;24.95;17.77;;;1.30;99.90;;;;;;5074560;28;20047;-71
2023/12/04 02:06:53;;;;;;;26.15;18.00;;;1.30;99.90;;;;;;5072928;28;20033;-71
2023/12/04 02:09:19;;;;;;;27.77;17.85;;;1.30;99.90;;;;;;5072870;28;20086;-71
2023/12/04 02:11:45;;;;;;;25.85;17.33;;;1.30;99.90;;;;;;5072848;28;20037;-71
2023/12/04 02:14:11;;;;;;;27.58;18.55;;;1.30;99.90;;;;;;5072750;28;20044;-71
2023/12/04 02:16:41;;;;;;;27.75;18.42;;;1.40;99.90;;;;;;5072987;28;20036;-71
2023/12/04 02:19:08;;;;;;;24.02;16.45;;;1.30;99.90;;;;;;5072939;28;20033;-71
2023/12/04 02:21:34;;;;;;;26.65;18.15;;;1.30;99.90;;;;;;5073986;28;20044;-71
2023/12/04 02:23:59;;;;;;;25.88;17.65;;;1.30;99.90;;;;;;5074150;28;20052;-71
2023/12/04 02:26:31;;;;;;;24.65;17.85;;;1.30;99.90;;;;;;5073721;28;20045;-71
2023/12/04 02:29:01;;;;;;;27.83;18.65;;;1.40;99.90;;;;;;5072783;28;20468;-71
2023/12/04 02:31:28;;;;;;;28.27;18.40;;;1.40;99.90;;;;;;5072496;28;20048;-71
2023/12/04 02:33:56;;;;;;;27.50;17.90;;;1.40;99.90;;;;;;5072696;28;20543;-71
2023/12/04 02:36:27;;;;;;;28.45;18.17;;;1.40;99.90;;;;;;5072363;28;20409;-71
2023/12/04 02:38:53;;;;;;;26.20;17.27;;;1.30;99.90;;;;;;5073864;28;20086;-71
2023/12/04 02:41:19;;;;;;;26.08;17.70;;;1.40;99.90;;;;;;5072576;28;20098;-71
2023/12/04 02:43:44;;;;;;;24.58;16.92;;;1.40;99.90;;;;;;5072695;28;20523;-71
2023/12/04 02:46:10;;;;;;;25.42;17.38;;;1.40;99.90;;;;;;5073436;28;20036;-71
2023/12/04 02:48:36;;;;;;;25.17;16.40;;;1.40;99.90;;;;;;5072472;28;20041;-71
2023/12/04 02:51:03;;;;;;;27.15;17.00;;;1.40;99.90;;;;;;5072327;28;20040;-71
2023/12/04 02:53:28;;;;;;;26.80;17.98;;;1.40;99.90;;;;;;5072082;28;20047;-71
2023/12/04 02:55:54;;;;;;;27.38;16.42;;;1.40;99.90;;;;;;5073162;28;20029;-71
2023/12/04 02:58:20;;;;;;;26.48;17.95;;;1.40;99.90;;;;;;5072315;28;20110;-71
2023/12/04 03:00:45;;;;;;;26.92;17.92;;;1.40;99.90;;;;;;5072001;28;20046;-72
2023/12/04 03:03:11;;;;;;;26.38;17.13;;;1.40;99.90;;;;;;5072291;28;20040;-71
2023/12/04 03:05:36;;;;;;;26.55;18.40;;;1.30;99.90;;;;;;5055319;28;20386;-71
2023/12/04 03:08:02;;;;;;;25.30;17.30;;;1.40;99.90;;;;;;5073478;28;20039;-71
2023/12/04 03:10:28;;;;;;;27.02;16.58;;;1.40;99.90;;;;;;5073400;28;20534;-71
2023/12/04 03:12:53;;;;;;;25.52;16.98;;;1.40;99.90;;;;;;5055141;28;20040;-71
2023/12/04 03:15:19;;;;;;;26.23;17.63;;;1.40;99.90;;;;;;5073430;28;20028;-71
2023/12/04 03:17:44;;;;;;;25.08;16.95;;;1.40;99.90;;;;;;5072241;28;20484;-71
2023/12/04 03:20:10;;;;;;;25.80;17.00;;;1.40;99.90;;;;;;5071755;28;20072;-71
2023/12/04 03:22:37;;;;;;;29.70;18.48;;;1.40;99.90;;;;;;5072939;28;20036;-71
2023/12/04 03:25:02;;;;;;;27.17;17.52;;;1.40;99.90;;;;;;5072006;28;20047;-71
2023/12/04 03:27:28;;;;;;;26.02;17.70;;;1.40;99.90;;;;;;5071737;28;20032;-71
2023/12/04 03:29:54;;;;;;;27.35;17.90;;;1.40;99.90;;;;;;5073242;28;20104;-71
2023/12/04 03:32:20;;;;;;;26.83;17.52;;;1.40;99.90;;;;;;5071648;28;20119;-71
2023/12/04 03:34:45;;;;;;;25.55;16.83;;;1.40;99.90;;;;;;5073219;28;20028;-71
2023/12/04 03:37:11;;;;;;;25.77;16.92;;;1.40;99.90;;;;;;5072000;28;20048;-71
2023/12/04 03:39:37;;;;;;;24.55;16.45;;;1.40;99.90;;;;;;5073100;28;20029;-71
2023/12/04 03:42:02;;;;;;;25.83;16.88;;;1.40;99.90;;;;;;5073176;28;20032;-71
2023/12/04 03:44:28;;;;;;;27.38;18.27;;;1.40;99.90;;;;;;5071820;28;20109;-72
2023/12/04 03:46:54;;;;;;;25.27;16.60;;;1.40;99.90;;;;;;5073141;28;20555;-71
2023/12/04 03:49:19;;;;;;;24.15;16.50;;;1.50;99.90;;;;;;5073001;28;20043;-71
2023/12/04 03:51:45;;;;;;;23.33;16.20;;;1.50;99.90;;;;;;5071779;28;20045;-72
2023/12/04 03:54:11;;;;;;;25.90;16.42;;;1.50;99.90;;;;;;5071497;28;20086;-71
2023/12/04 03:56:36;;;;;;;24.73;16.35;;;1.40;99.90;;;;;;5071498;28;20623;-71
2023/12/04 03:59:02;;;;;;;21.23;15.25;;;1.50;99.90;;;;;;5072887;28;20060;-71
2023/12/04 04:01:28;;;;;;;25.60;17.10;;;1.50;99.90;;;;;;5071427;28;20045;-71
2023/12/04 04:03:54;;;;;;;23.88;16.25;;;1.40;99.90;;;;;;5054712;28;20055;-71
2023/12/04 04:06:19;;;;;;;26.30;16.45;;;1.40;99.90;;;;;;5071430;28;20083;-72
2023/12/04 04:08:45;;;;;;;25.45;16.30;;;1.50;99.90;;;;;;5074560;28;20052;-72
2023/12/04 04:11:11;;;;;;;26.25;16.88;;;1.40;99.90;;;;;;5076623;28;20051;-71
2023/12/04 04:13:37;;;;;;;25.67;16.50;;;1.40;99.90;;;;;;5076593;28;20142;-72
2023/12/04 04:16:03;;;;;;;24.83;16.60;;;1.40;99.90;;;;;;5076590;28;20068;-72
2023/12/04 04:18:29;;;;;;;23.55;16.00;;;1.50;99.90;;;;;;5075072;28;20033;-72
2023/12/04 04:20:54;;;;;;;26.15;17.15;;;1.50;99.90;;;;;;5058290;28;20040;-71
2023/12/04 04:23:20;;;;;;;24.83;16.35;;;1.50;99.90;;;;;;5074895;28;20052;-71
2023/12/04 04:25:45;;;;;;;21.80;16.27;;;1.40;99.90;;;;;;5074882;28;20040;-71
2023/12/04 04:28:11;;;;;;;24.60;15.43;;;1.40;99.90;;;;;;5075120;28;20075;-71
2023/12/04 04:30:36;;;;;;;23.40;16.05;;;1.40;99.90;;;;;;5076294;28;20443;-71
2023/12/04 04:33:04;;;;;;;25.45;16.42;;;1.50;99.90;;;;;;5058109;28;20051;-71
2023/12/04 04:35:30;;;;;;;21.98;14.80;;;1.50;99.90;;;;;;5076282;28;20127;-71
2023/12/04 04:37:55;;;;;;;22.58;15.70;;;1.40;99.90;;;;;;5074969;28;20119;-71
2023/12/04 04:40:21;;;;;;;23.65;15.50;;;1.50;99.90;;;;;;5076081;28;20116;-71
2023/12/04 04:42:46;;;;;;;24.88;16.10;;;1.50;99.90;;;;;;5074883;28;20044;-71
2023/12/04 04:45:12;;;;;;;23.77;15.88;;;1.50;99.90;;;;;;5074946;28;20045;-71
2023/12/04 04:47:38;;;;;;;23.30;15.82;;;1.50;99.90;;;;;;5074540;28;20378;-71
2023/12/04 04:50:03;;;;;;;23.10;15.23;;;1.50;99.90;;;;;;5074448;28;20069;-71
2023/12/04 04:52:29;;;;;;;24.38;15.65;;;1.50;99.90;;;;;;5075875;28;20048;-71
2023/12/04 04:54:55;;;;;;;25.13;15.65;;;1.50;99.90;;;;;;5074421;28;20029;-72
2023/12/04 04:57:20;;;;;;;26.25;15.98;;;1.50;99.90;;;;;;5074363;28;20081;-72
2023/12/04 04:59:46;;;;;;;24.13;15.23;;;1.50;99.90;;;;;;5075730;28;20037;-71
2023/12/04 05:02:11;;;;;;;24.15;15.13;;;1.50;99.90;;;;;;5075776;28;20059;-71
2023/12/04 05:04:37;;;;;;;25.40;16.38;;;1.50;99.90;;;;;;5074234;28;20032;-71
2023/12/04 05:07:03;;;;;;;22.38;14.48;;;1.50;99.90;;;;;;5074200;28;20094;-72
2023/12/04 05:09:28;;;;;;;22.10;14.90;;;1.50;99.90;;;;;;5075271;28;20047;-71
2023/12/04 05:11:54;;;;;;;25.52;15.80;;;1.50;99.90;;;;;;5074126;28;20076;-71
2023/12/04 05:14:20;;;;;;;24.40;14.57;;;1.50;99.90;;;;;;5075543;28;20115;-71
2023/12/04 05:16:45;;;;;;;22.98;14.93;;;1.50;99.90;;;;;;5074003;28;20495;-71
2023/12/04 05:19:11;;;;;;;20.48;13.98;;;1.50;99.90;;;;;;5073812;28;20032;-71
2023/12/04 05:21:36;;;;;;;24.15;14.90;;;1.40;99.90;;;;;;5074096;28;20041;-71
2023/12/04 05:24:02;;;;;;;20.73;14.25;;;1.50;99.90;;;;;;5075424;28;20488;-71
2023/12/04 05:26:27;;;;;;;22.52;15.00;;;1.50;99.90;;;;;;5073751;28;20040;-71
2023/12/04 05:28:53;;;;;;;21.58;14.68;;;1.50;99.90;;;;;;5075197;28;20044;-71
2023/12/04 05:31:18;;;;;;;23.08;15.25;;;1.50;99.90;;;;;;5075174;28;20046;-71
2023/12/04 05:33:44;;;;;;;21.48;14.30;;;1.50;99.90;;;;;;5073694;28;20097;-72
2023/12/04 05:36:10;;;;;;;23.48;15.02;;;1.50;99.90;;;;;;5075129;28;20040;-72
2023/12/04 05:38:35;;;;;;;23.83;15.60;;;1.50;99.90;;;;;;5073601;28;20488;-72
2023/12/04 05:41:01;;;;;;;21.90;15.02;;;1.50;99.90;;;;;;5073485;28;20037;-72
2023/12/04 05:43:27;;;;;;;21.52;14.65;;;1.50;99.90;;;;;;5073467;28;20044;-72
2023/12/04 05:45:52;;;;;;;21.08;14.35;;;1.50;99.90;;;;;;5073725;28;20049;-72
2023/12/04 05:48:18;;;;;;;22.00;14.18;;;1.50;99.90;;;;;;5073673;28;20131;-72
2023/12/04 05:50:44;;;;;;;21.05;14.25;;;1.50;99.90;;;;;;5074782;28;20419;-72
2023/12/04 05:53:11;;;;;;;23.13;14.27;;;1.50;99.90;;;;;;5073204;28;20409;-72
2023/12/04 05:55:36;;;;;;;23.38;14.77;;;1.50;99.90;;;;;;5074768;28;20484;-71
2023/12/04 05:58:02;;;;;;;22.75;15.18;;;1.50;99.90;;;;;;5073216;28;20119;-71
2023/12/04 06:00:27;;;;;;;21.90;14.55;;;1.50;99.90;;;;;;5073064;28;20048;-71
2023/12/04 06:02:53;;;;;;;21.90;13.73;;;1.50;99.90;;;;;;5056424;28;20037;-71
2023/12/04 06:05:19;;;;;;;20.40;13.45;;;1.50;99.90;;;;;;5074512;28;20040;-71
2023/12/04 06:07:44;;;;;;;21.33;13.68;;;1.50;99.90;;;;;;5073244;28;20044;-71
2023/12/04 06:10:10;;;;;;;20.40;13.40;;;1.50;99.90;;;;;;5074341;28;20552;-71
2023/12/04 06:12:36;;;;;;;20.52;13.80;;;1.40;99.90;;;;;;5072818;28;20044;-71
2023/12/04 06:15:02;;;;;;;22.88;14.60;;;1.50;99.90;;;;;;5072841;28;20032;-71
2023/12/04 06:17:27;;;;;;;21.65;14.70;;;1.40;99.90;;;;;;5072775;28;20082;-71
2023/12/04 06:19:53;;;;;;;21.50;13.35;;;1.40;99.90;;;;;;5056058;28;20040;-71
2023/12/04 06:22:21;;;;;;;21.38;14.23;;;1.50;99.90;;;;;;5073867;28;20041;-71
2023/12/04 06:24:47;;;;;;;21.88;14.57;;;1.40;99.90;;;;;;5072640;28;20036;-71
2023/12/04 06:27:20;;;;;;;21.45;13.43;;;1.40;99.90;;;;;;5072611;28;20041;-71
2023/12/04 06:29:47;;;;;;;22.02;13.77;;;1.40;99.90;;;;;;5073483;28;20051;-71
2023/12/04 06:32:13;;;;;;;18.00;12.82;;;1.40;99.90;;;;;;5072367;28;20037;-71
2023/12/04 06:34:39;;;;;;;18.60;12.25;;;1.50;99.90;;;;;;5072459;28;20143;-71
2023/12/04 06:37:10;;;;;;;19.05;12.80;;;1.40;99.90;;;;;;5073493;28;20047;-71
2023/12/04 06:39:38;;;;;;;19.27;13.02;;;1.40;99.90;;;;;;5072337;28;20082;-71
2023/12/04 06:42:07;;;;;;;17.33;12.55;;;1.40;99.90;;;;;;5072251;28;20497;-71
2023/12/04 06:44:34;;;;;;;20.63;12.77;;;1.40;99.90;;;;;;5072289;28;20086;-71
2023/12/04 06:47:01;;;;;;;21.10;13.20;;;1.40;99.90;;;;;;5072292;28;20082;-73
2023/12/04 06:49:32;;;;;;;21.33;13.55;;;1.40;99.90;;;;;;5072180;28;20082;-71
2023/12/04 06:51:59;;;;;;;19.42;13.05;;;1.40;99.90;;;;;;5073739;28;20488;-71
2023/12/04 06:54:24;;;;;;;20.30;13.05;;;1.30;99.90;;;;;;5072062;28;20047;-71
2023/12/04 06:56:50;;;;;;;19.42;13.07;;;1.30;99.90;;;;;;5073627;28;20029;-71
2023/12/04 06:59:17;;;;;;;18.85;12.82;;;1.30;99.90;;;;;;5072105;28;20113;-71
2023/12/04 07:01:42;;;;;;;20.15;13.65;;;1.30;99.90;;;;;;5072335;28;20072;-71
2023/12/04 07:04:09;;;;;;;18.73;12.43;;;1.30;99.90;;;;;;5072294;28;20464;-71
2023/12/04 07:06:39;;;;;;;20.40;12.70;;;1.30;99.90;;;;;;5072037;28;20195;-71
2023/12/04 07:09:08;;;;;;;17.67;12.48;;;1.30;99.90;;;;;;5074025;28;20451;-71
2023/12/04 07:11:34;;;;;;;20.20;13.63;;;1.30;99.90;;;;;;5072211;28;20044;-71
2023/12/04 07:13:59;;;;;;;19.50;13.13;;;1.30;99.90;;;;;;5071860;28;20514;-72
2023/12/04 07:16:25;;;;;;;21.23;12.85;;;1.30;99.90;;;;;;5073431;28;20048;-71
2023/12/04 07:18:51;;;;;;;19.10;13.05;;;1.30;99.90;;;;;;5072054;28;20032;-71
2023/12/04 07:21:16;;;;;;;19.50;12.43;;;1.30;99.90;;;;;;5071953;28;20501;-71
2023/12/04 07:23:42;;;;;;;18.25;11.68;;;1.30;99.90;;;;;;5073398;28;20542;-71
2023/12/04 07:26:08;;;;;;;18.40;11.90;;;1.30;99.90;;;;;;5073347;28;20138;-71
2023/12/04 07:28:34;;;;;;;20.70;12.73;;;1.30;99.90;;;;;;5072026;28;20401;-71
2023/12/04 07:31:01;;;;;;;16.50;11.70;;;1.30;99.90;;;;;;5073217;28;20051;-71
2023/12/04 07:33:27;;;;;;;18.75;12.15;;;1.30;99.90;;;;;;5071999;28;20037;-71
2023/12/04 07:35:53;;;;;;;18.90;12.25;;;1.30;99.90;;;;;;5073296;28;20037;-71
2023/12/04 07:38:18;;;;;;;17.25;11.75;;;1.30;99.90;;;;;;5073215;28;20116;-71
2023/12/04 07:40:45;;;;;;;16.77;11.57;;;1.30;99.90;;;;;;5071825;28;20048;-71
2023/12/04 07:43:11;;;;;;;18.42;12.45;;;1.30;99.90;;;;;;5076978;28;20086;-71
2023/12/04 07:45:36;;;;;;;17.55;11.68;;;1.30;99.90;;;;;;5075719;28;20036;-71
2023/12/04 07:48:04;;;;;;;19.40;12.20;;;1.30;99.90;;;;;;5075709;28;20048;-71
2023/12/04 07:50:29;;;;;;;19.02;11.77;;;1.30;99.90;;;;;;5058897;28;20053;-71
2023/12/04 07:52:58;;;;;;;16.33;11.65;;;1.30;99.90;;;;;;5076726;28;20045;-70
2023/12/04 07:55:23;;;;;;;19.38;11.32;;;1.40;99.90;;;;;;5075588;28;20052;-70
2023/12/04 07:57:50;;;;;;;16.20;10.98;;;1.40;99.90;;;;;;5075917;28;20033;-71
2023/12/04 08:00:17;;;;;;;19.35;11.93;;;1.40;99.90;;;;;;5077000;28;20037;-71
2023/12/04 08:02:45;;;;;;;17.50;11.00;;;1.40;99.90;;;;;;5075600;28;20047;-71
2023/12/04 08:05:12;;;;;;;17.30;11.85;;;1.40;99.90;;;;;;5075323;28;20055;-71
2023/12/04 08:07:37;;;;;;;17.35;12.45;;;1.40;99.90;;;;;;5075559;28;20040;-71
2023/12/04 08:10:04;;;;;;;17.40;10.95;;;1.40;99.90;;;;;;5075848;28;20531;-71
2023/12/04 08:12:29;;;;;;;20.55;11.93;;;1.40;99.90;;;;;;5058476;28;20044;-71
2023/12/04 08:14:55;;;;;;;16.50;10.98;;;1.40;99.90;;;;;;5058507;28;20079;-71
2023/12/04 08:17:20;;;;;;;14.63;10.68;;;1.40;99.90;;;;;;5075072;28;20048;-71
2023/12/04 08:19:46;;;;;;;18.58;11.55;;;1.40;99.90;;;;;;5075298;28;20040;-71
2023/12/04 08:22:12;;;;;;;16.63;11.15;;;1.50;99.90;;;;;;5074831;28;20509;-71
2023/12/04 08:24:37;;;;;;;20.48;12.05;;;1.50;99.90;;;;;;5074903;28;20044;-71
2023/12/04 08:27:03;;;;;;;18.00;11.90;;;1.50;99.90;;;;;;5076429;28;20040;-71
2023/12/04 08:29:29;;;;;;;17.42;11.95;;;1.50;99.90;;;;;;5074724;28;20078;-71
2023/12/04 08:31:54;;;;;;;17.20;11.48;;;1.50;99.90;;;;;;5074821;28;20037;-71
2023/12/04 08:34:20;;;;;;;17.88;12.02;;;1.50;99.90;;;;;;5075880;28;20044;-71
2023/12/04 08:36:45;;;;;;;19.77;13.77;;;1.50;99.90;;;;;;5075033;28;20119;-71
2023/12/04 08:39:11;;;;;;;19.67;12.25;;;1.50;99.90;;;;;;5074898;28;20371;-71
2023/12/04 08:41:37;;;;;;;17.05;11.50;;;1.50;99.90;;;;;;5074652;28;20111;-71
2023/12/04 08:44:02;;;;;;;16.48;11.40;;;1.50;99.90;;;;;;5074668;28;20086;-71
2023/12/04 08:46:28;;;;;;;17.65;11.35;;;1.50;99.90;;;;;;5076070;28;20064;-71
2023/12/04 08:48:54;;;;;;;17.95;10.90;;;1.50;99.90;;;;;;5074770;28;20044;-71
2023/12/04 08:51:19;;;;;;;18.50;12.07;;;1.50;99.90;;;;;;5074798;28;20467;-71
2023/12/04 08:53:45;;;;;;;16.95;10.50;;;1.50;99.90;;;;;;5073612;28;20622;-71
2023/12/04 08:56:11;;;;;;;17.40;11.35;;;1.60;99.90;;;;;;5074677;28;20035;-71
2023/12/04 08:58:37;;;;;;;15.63;10.60;;;1.60;99.90;;;;;;5075849;28;20068;-72
2023/12/04 09:01:03;;;;;;;15.80;10.95;;;1.60;99.90;;;;;;5075813;28;20039;-71
2023/12/04 09:03:31;;;;;;;14.77;10.68;;;1.60;99.90;;;;;;5074244;28;20519;-71
2023/12/04 09:05:57;;;;;;;16.13;10.50;;;1.60;99.90;;;;;;5074261;28;20098;-71
2023/12/04 09:08:23;;;;;;;15.82;10.45;;;1.70;99.90;;;;;;5074204;28;20093;-71
2023/12/04 09:10:49;;;;;;;14.50;10.05;;;1.60;99.90;;;;;;5074090;28;20036;-71
2023/12/04 09:13:15;;;;;;;19.27;11.15;;;1.70;99.90;;;;;;5074005;28;20059;-71
2023/12/04 09:15:41;;;;;;;14.23;10.50;;;1.70;99.90;;;;;;5075570;28;20043;-71
2023/12/04 09:18:07;;;;;;;15.18;9.95;;;1.70;99.90;;;;;;5075499;28;20037;-71
2023/12/04 09:20:32;;;;;;;14.98;10.52;;;1.70;99.90;;;;;;5074479;28;20135;-71
2023/12/04 09:22:58;;;;;;;15.73;9.98;;;1.70;99.90;;;;;;5073929;28;20049;-71
2023/12/04 09:25:24;;;;;;;15.15;9.10;;;1.80;99.90;;;;;;5073885;28;20045;-71
2023/12/04 09:27:50;;;;;;;14.85;9.55;;;1.80;99.90;;;;;;5075334;28;20036;-71
2023/12/04 09:30:15;;;;;;;16.17;8.82;;;1.80;99.90;;;;;;5073960;28;20040;-71
2023/12/04 09:32:41;;;;;;;15.32;10.13;;;1.80;99.90;;;;;;5073664;28;20076;-71
2023/12/04 09:35:07;;;;;;;14.57;8.95;;;1.90;99.90;;;;;;5074003;28;20044;-71
2023/12/04 09:37:33;;;;;;;11.90;8.48;;;1.90;99.90;;;;;;5074930;28;20485;-71
2023/12/04 09:39:58;;;;;;;19.17;9.30;;;1.90;99.90;;;;;;5075616;28;20449;-71
2023/12/04 09:42:24;;;;;;;13.93;8.90;;;1.90;99.90;;;;;;5073871;28;20448;-71
2023/12/04 09:44:52;;;;;;;12.95;8.63;;;1.90;99.90;;;;;;5073748;28;20040;-71
2023/12/04 09:47:18;;;;;;;12.90;8.98;;;1.90;99.90;;;;;;5073685;28;20044;-71
2023/12/04 09:49:45;;;;;;;15.07;8.85;;;1.90;99.90;;;;;;5056910;28;20047;-71
2023/12/04 09:52:11;;;;;;;12.73;8.73;;;2.00;99.90;;;;;;5056821;28;20543;-71
2023/12/04 09:54:38;;;;;;;13.07;8.80;;;2.00;99.90;;;;;;5073531;28;20167;-71
2023/12/04 09:57:05;;;;;;;11.68;8.35;;;2.00;99.90;;;;;;5074758;28;20044;-71
2023/12/04 09:59:31;;;;;;;11.20;8.63;;;2.10;99.90;;;;;;5073161;28;20481;-71
2023/12/04 10:01:58;;;;;;;11.65;8.50;;;2.10;99.90;;;;;;5073411;28;20044;-71
2023/12/04 10:04:24;;;;;;;13.15;9.15;;;2.10;99.90;;;;;;5074050;28;20616;-71
2023/12/04 10:06:52;;;;;;;14.18;9.23;;;2.20;99.90;;;;;;5055726;28;20086;-71
2023/12/04 10:09:18;;;;;;;14.40;9.75;;;2.20;99.90;;;;;;5073032;28;20048;-71
2023/12/04 10:11:45;;;;;;;12.65;8.95;;;2.20;99.90;;;;;;5056591;28;20401;-71
2023/12/04 10:14:19;;;;;;;10.93;8.70;;;2.20;99.90;;;;;;5056418;28;20043;-71
2023/12/04 10:16:45;;;;;;;11.93;8.55;;;2.30;99.90;;;;;;5056214;28;20528;-71
2023/12/04 10:19:19;;;;;;;11.68;8.40;;;2.30;99.90;;;;;;5072791;28;20036;-71
2023/12/04 10:21:47;;;;;;;12.52;8.98;;;2.30;99.90;;;;;;5072823;28;20040;-71
2023/12/04 10:24:26;;;;;;;12.23;7.63;;;2.30;99.90;;;;;;5074189;28;20044;-71
2023/12/04 10:26:52;;;;;;;12.57;8.10;;;2.30;99.90;;;;;;5074227;28;20075;-71
2023/12/04 10:29:18;;;;;;;11.57;7.70;;;2.30;99.90;;;;;;5072582;28;20040;-70
2023/12/04 10:31:43;;;;;;;12.32;8.48;;;2.30;99.90;;;;;;5074116;28;20195;-71
2023/12/04 10:34:12;;;;;;;10.80;7.53;;;2.30;99.90;;;;;;5073906;28;20145;-70
2023/12/04 10:36:38;;;;;;;12.32;7.88;;;2.30;99.90;;;;;;5072419;28;20116;-71
2023/12/04 10:39:06;;;;;;;11.23;8.63;;;2.30;99.90;;;;;;5073884;28;20097;-70
2023/12/04 10:41:32;;;;;;;13.60;9.15;;;2.40;99.90;;;;;;5073918;28;20033;-70
2023/12/04 10:44:00;;;;;;;11.02;8.20;;;2.40;99.90;;;;;;5072648;28;20045;-70
2023/12/04 10:46:27;;;;;;;12.07;8.25;;;2.40;99.90;;;;;;5072317;28;20097;-70
2023/12/04 10:48:53;;;;;;;10.27;7.95;;;2.40;99.90;;;;;;5073749;28;20044;-70
2023/12/04 10:51:21;;;;;;;11.88;7.82;;;2.50;99.90;;;;;;5073720;28;20048;-71
2023/12/04 10:53:47;;;;;;;12.13;7.88;;;2.50;99.90;;;;;;5072113;28;20407;-71
2023/12/04 10:56:27;;;;;;;11.55;7.40;;;2.50;99.90;;;;;;5072277;28;20036;-71
2023/12/04 10:58:56;;;;;;;10.55;7.38;;;2.60;99.90;;;;;;5072121;28;20086;-71
2023/12/04 11:01:23;;;;;;;11.10;7.60;;;2.60;99.90;;;;;;5072240;28;20044;-71
2023/12/04 11:03:53;;;;;;;11.75;7.78;;;2.60;99.90;;;;;;5072651;28;20059;-71
2023/12/04 11:06:21;;;;;;;9.88;6.72;;;2.60;99.90;;;;;;5073814;28;20097;-71
2023/12/04 11:08:48;;;;;;;11.35;7.82;;;2.70;99.90;;;;;;5072213;28;20058;-71
2023/12/04 11:11:24;;;;;;;9.90;6.68;;;2.70;99.90;;;;;;5071902;28;20048;-71
2023/12/04 11:13:53;;;;;;;9.73;6.78;;;2.70;99.90;;;;;;5071996;28;20044;-71
2023/12/04 11:16:27;;;;;;;10.27;7.20;;;2.80;99.90;;;;;;5071536;28;20044;-71
2023/12/04 11:19:28;;;;;;;9.75;7.10;;;2.80;99.90;;;;;;5071830;28;20036;-71
2023/12/04 11:21:59;;;;;;;10.52;7.05;;;2.70;99.90;;;;;;5055140;28;20041;-71
2023/12/04 11:24:25;;;;;;;9.73;6.85;;;2.70;99.90;;;;;;5071870;28;20076;-71
2023/12/04 11:26:52;;;;;;;9.35;6.60;;;2.80;99.90;;;;;;5073325;28;20076;-71
2023/12/04 11:29:19;;;;;;;9.90;6.93;;;2.80;99.90;;;;;;5072939;28;20511;-69
2023/12/04 11:31:46;;;;;;;11.88;7.38;;;2.80;99.90;;;;;;5072066;28;20374;-69
2023/12/04 11:34:12;;;;;;;11.45;7.85;;;2.70;99.90;;;;;;5072884;28;20508;-69
2023/12/04 11:36:38;;;;;;;12.43;7.65;;;2.80;99.90;;;;;;5071694;28;20033;-69
2023/12/04 11:39:10;;;;;;;9.23;6.95;;;2.80;99.90;;;;;;5073168;28;20087;-69
2023/12/04 11:41:37;;;;;;;10.45;7.03;;;2.80;99.90;;;;;;5073228;28;20037;-70
2023/12/04 11:44:03;;;;;;;10.68;7.07;;;2.80;99.90;;;;;;5071609;28;20079;-71
2023/12/04 11:46:30;;;;;;;9.27;6.82;;;2.80;99.90;;;;;;5073177;28;20037;-69
2023/12/04 11:48:57;;;;;;;9.02;6.53;;;2.90;99.90;;;;;;5071789;28;20102;-69
2023/12/04 11:51:42;;;;;;;10.45;7.45;;;2.90;99.90;;;;;;5071758;28;20041;-69
2023/12/04 11:54:09;;;;;;;9.95;7.13;;;2.90;99.90;;;;;;5071504;28;20048;-69
2023/12/04 11:56:35;;;;;;;8.82;6.57;;;2.90;99.90;;;;;;5073187;28;20041;-69
2023/12/04 11:59:07;;;;;;;9.07;6.40;;;2.90;99.90;;;;;;5073101;28;20048;-70
2023/12/04 12:01:36;;;;;;;9.57;6.40;;;3.00;99.90;;;;;;5073087;28;20037;-70
2023/12/04 12:04:06;;;;;;;9.20;6.65;;;2.90;99.90;;;;;;5071452;28;20076;-69
2023/12/04 12:06:32;;;;;;;10.65;6.70;;;3.00;99.90;;;;;;5071418;28;20413;-70
2023/12/04 12:08:58;;;;;;;8.90;6.68;;;3.00;99.90;;;;;;5071720;28;20048;-69
2023/12/04 12:11:24;;;;;;;9.88;6.45;;;3.10;99.90;;;;;;5071462;28;20041;-69
2023/12/04 12:13:50;;;;;;;7.88;6.20;;;3.20;99.90;;;;;;5054623;28;20047;-70
2023/12/04 12:16:18;;;;;;;8.88;6.88;;;3.40;99.90;;;;;;5071649;28;20036;-70
2023/12/04 12:18:43;;;;;;;9.00;6.32;;;3.50;99.90;;;;;;5072538;28;20583;-70
2023/12/04 12:21:10;;;;;;;10.30;6.70;;;3.70;99.90;;;;;;5073909;28;20068;-70
2023/12/04 12:23:35;;;;;;;9.82;6.55;;;3.80;99.90;;;;;;5072967;28;20095;-70
2023/12/04 12:26:01;;;;;;;10.05;7.10;;;4.00;99.90;;;;;;5071735;28;20072;-71
2023/12/04 12:28:28;;;;;;;9.88;7.07;;;4.20;99.90;;;;;;5071979;28;20078;-71
2023/12/04 12:30:54;;;;;;;10.73;7.05;;;4.30;99.90;;;;;;5074814;28;20049;-70
2023/12/04 12:33:20;;;;;;;11.05;6.43;;;4.40;99.90;;;;;;5058103;28;20114;-70
2023/12/04 12:35:47;;;;;;;9.52;6.95;;;4.40;99.90;;;;;;5074803;28;20090;-70